Airfield :
LOGIN :

Register | Disclaimer

   EN    FR    IT 

 










Legend :    VFR   Marginal VFR   IFR   Intensive IFR   Very Intensive IFR
Visi :
Ceiling :
>= 8 km
>= 3000ft
5 to 8 km
1000 to 3000 ft
1500m to 5 km
500 to 1000 ft
800 to 1500m
200 to 500 ft
< 800m
< 200 ft
Symbols :   Thunderstorms  Fog  Heavy snow  Heavy precipitations  Wind > 20 kt
SIGMETs :     Misc.  Thunderstorms  Icing  Turbulence  Mountain Waves  Volcanic Ashes







- Airport Elevation : 357 ft
- IATA code : TUF
- Download approach charts


LFOT - Tours

CURRENT METAR :
  • 181430Z AUTO 14011KT CAVOK 08/04 Q1011 NOSIG

EXPIRED METARs :
  • 181400Z AUTO 14009KT CAVOK 08/04 Q1012 NOSIG
  • 181330Z AUTO 15008KT 120V180 CAVOK 09/04 Q1013 NOSIG
  • 181300Z AUTO 13007KT CAVOK 08/04 Q1013 NOSIG
  • 181230Z AUTO 12005KT CAVOK 07/04 Q1014 NOSIG
  • 181200Z AUTO 13006KT CAVOK 07/04 Q1014 NOSIG

TAF TAF LFOT
Valid from the 18 at 12:00 until the 19 at 12:00 UTC


181100Z 1812/1912 15010KT CAVOK
BECMG 1818/1821 20012KT 9999 -RA BKN020
TEMPO 1821/1901 20015G25KT -RA BKN008
BECMG 1900/1902 22010KT 9999 NSW SCT011 BKN040
PROB30
TEMPO 1902/1908 BKN009
TEMPO 1907/1912 4000 -SHRA SCT011 BKN030
No reported NOTAMs for that airfield.



MET'MAP, your aeronautical weather chart ! - Copyright ORBIFLY December 2007 - Disclaimer

ORBIFLY MET'MAP TEAM :

Programming & Development : Alexandra Zaïnal
Concept & Development : Baudouin d'Aumeries
Co-Development & Prog : Marc-Olivier Méhu
Technical & hardware support : Manuel Goepfert

Contact : metmap@orbifly.com




SOURCES & CREDITS :

   NOAA